Terminal Aerodrome Forecast
Issued by NWS

Home | Current Version | Previous Version | Text Only | Print | Product List | Glossary Off
Versions: 1 2 3 4 5 6 7 8 9 10 11 12 13

000
FTUS42 KMHX 230500
TAFISO
TAF
KISO 230521Z 2306/2406 00000KT P6SM BKN200
     FM231600 14007KT P6SM VCSH SCT025 BKN060
     FM232100 13010G16KT 4SM -SHRA BR OVC025
     FM240100 14012G18KT 5SM -TSRA OVC015CB
      AMD LTD TO CLD VIS AND WIND=

USA.gov is the U.S. government's official web portal to all federal, state and local government web resources and services.